KSFZ/SFZ METAR and TAF weather

Enter ICAO airport designator
Station Type Date Time Source
KSFZ METAR 2023/12/10 22:56 UTC NOAA

KSFZ 102256Z AUTO 21007G20KT 4SM RA BR OVC008 15/15 A2982 RMK AO2 CIG 005V011 SLP099 P0040 T01500150 $


Station Type Date Time Source
KSFZ Decoded METAR 2023/12/10 22:56 UTC NOAA

Pawtucket, North Central State Airport, RI, United States (KSFZ) 41-55N 071-30W
Dec 10, 2023 - 05:56 PM EST / 2023.12.10 2256 UTC
Wind: from the SSW (210 degrees) at 8 MPH (7 KT) gusting to 23 MPH (20 KT):0
Visibility: 4 mile(s):0
Sky conditions: overcast
Weather: rain; mist
Precipitation last hour: 0.40 inches
Temperature: 59.0 F (15.0 C)
Dew Point: 59.0 F (15.0 C)
Relative Humidity: 100%
Pressure (altimeter): 29.82 in. Hg (1009 hPa)
ob: KSFZ 102256Z AUTO 21007G20KT 4SM RA BR OVC008 15/15 A2982 RMK AO2 CIG 005V011 SLP099 P0040 T01500150
cycle: 23

Station Type Date Time Source
KSFZ TAF UTC NOAA

Error!

Example: see airport list